»·PEaware :: UPS9030 KPDX-KBFI

UPS9030 :: KPDX-KBFI

FLIGHT INFORMATION

Flight Status: Arrived
Operator:
United Parcel Service
More flights by this operator :: More flights under this callsign
Pilot: Skye D. (10623)
Aircraft: BOEING 757-200
(B752)
More flights by this aircraft type
Origin: KPDX Portland Intl
United States
Destination: KBFI Boeing Field/King Co Intl
United States
More flights between these airports :: More routes between these airports
Route: BTG OLM2
File this flight plan on PilotEdge
Remarks:
Altitude:
(Current/Filed)
21,000ft
Speed:
(Current/Filed)
390kts
Departed: 14-Dec-17 12:31 PM
Arrived: 14-Dec-17 01:07 PM
Distance/Time
Traveled:
117nm/0:35
Distance/Time
To Go:
Arrived

Flight Plot

Page will automatically refresh every two minutes.


Map Options




Map Legend


Flown Route
Filed Route
Departure Airport
Arrival Airport
Navaid (VOR, NDB)
Fix

Horizontal Profiles

Position Reports

Time Latitude Longitude Heading Altitude Ground
Speed
14-Dec-17 12:13 45.582903 -122.610490 135 41ft 0kts
14-Dec-17 12:14 45.582903 -122.610490 135 41ft 0kts
14-Dec-17 12:15 45.582903 -122.610490 135 41ft 0kts
14-Dec-17 12:16 45.582903 -122.610490 135 41ft 0kts
14-Dec-17 12:17 45.582903 -122.610490 135 41ft 0kts
14-Dec-17 12:18 45.582903 -122.610490 135 41ft 0kts
14-Dec-17 12:19 45.582903 -122.610490 135 41ft 0kts
14-Dec-17 12:20 45.582903 -122.610490 135 41ft 0kts
14-Dec-17 12:21 45.582903 -122.610490 135 41ft 0kts
14-Dec-17 12:22 45.582903 -122.610490 135 41ft 0kts
14-Dec-17 12:23 45.583162 -122.611482 49 41ft 0kts
14-Dec-17 12:24 45.583162 -122.611482 49 41ft 0kts
14-Dec-17 12:25 45.583162 -122.611482 49 41ft 0kts
14-Dec-17 12:26 45.583162 -122.611482 49 41ft 0kts
14-Dec-17 12:27 45.583162 -122.611482 49 41ft 0kts
14-Dec-17 12:28 45.583162 -122.611482 49 41ft 0kts
14-Dec-17 12:29 45.583218 -122.611399 43 41ft 2kts
14-Dec-17 12:30 45.585457 -122.608697 16 41ft 0kts
14-Dec-17 12:31 45.586516 -122.608770 28 41ft 10kts
14-Dec-17 12:32 45.588952 -122.608796 299 41ft 20kts
14-Dec-17 12:33 45.590518 -122.615600 299 41ft 17kts
14-Dec-17 12:34 45.592817 -122.621505 299 41ft 18kts
14-Dec-17 12:35 45.594087 -122.622148 36 41ft 2kts
14-Dec-17 12:36 45.594565 -122.619841 119 41ft 0kts
14-Dec-17 12:37 45.583387 -122.591119 117 1018ft 146kts
14-Dec-17 12:38 45.565090 -122.544086 116 2976ft 198kts
14-Dec-17 12:39 45.539103 -122.482786 117 5190ft 257kts
14-Dec-17 12:40 45.543496 -122.413552 38 7904ft 259kts
14-Dec-17 12:41 45.600033 -122.419341 322 10783ft 272kts
14-Dec-17 12:42 45.667743 -122.497122 320 12406ft 359kts
14-Dec-17 12:43 45.739753 -122.578372 329 15916ft 368kts
14-Dec-17 12:44 45.831914 -122.609069 347 18756ft 385kts
14-Dec-17 12:45 45.932865 -122.633914 347 21374ft 379kts
14-Dec-17 12:46 46.032128 -122.658712 346 21393ft 377kts
14-Dec-17 12:47 46.125567 -122.681810 347 21396ft 377kts
14-Dec-17 12:48 46.226177 -122.708110 346 21396ft 377kts
14-Dec-17 12:49 46.324802 -122.734015 346 21395ft 380kts
14-Dec-17 12:50 46.424588 -122.759442 346 21379ft 383kts
14-Dec-17 12:51 46.517856 -122.783192 346 19637ft 370kts
14-Dec-17 12:52 46.614594 -122.807064 347 17903ft 362kts
14-Dec-17 12:53 46.710395 -122.830929 346 16144ft 355kts
14-Dec-17 12:54 46.803039 -122.855292 346 14408ft 349kts
14-Dec-17 12:54 46.872409 -122.874124 347 13086ft 344kts
14-Dec-17 12:56 46.969673 -122.887114 16 12010ft 320kts
14-Dec-17 12:56 47.023216 -122.830576 38 12009ft 327kts
14-Dec-17 12:57 47.088474 -122.747181 38 12009ft 327kts
14-Dec-17 12:59 47.153746 -122.665383 37 11978ft 315kts
14-Dec-17 12:59 47.196293 -122.612066 38 11254ft 288kts
14-Dec-17 13:00 47.248841 -122.562070 7 10097ft 273kts
14-Dec-17 13:01 47.314912 -122.549449 5 8463ft 269kts
14-Dec-17 13:03 47.389565 -122.536019 5 6456ft 259kts
14-Dec-17 13:03 47.436195 -122.528356 5 5225ft 251kts
14-Dec-17 13:04 47.497200 -122.518614 5 3981ft 223kts
14-Dec-17 13:05 47.545104 -122.510541 5 3831ft 189kts
14-Dec-17 13:06 47.586510 -122.479937 44 2344ft 188kts
14-Dec-17 13:07 47.614498 -122.432368 66 1975ft 163kts
14-Dec-17 13:08 47.618331 -122.378084 118 1780ft 165kts
14-Dec-17 13:09 47.587228 -122.351408 151 1135ft 148kts
14-Dec-17 13:10 47.561906 -122.329308 150 521ft 140kts
14-Dec-17 13:11 47.538931 -122.310013 150 53ft 134kts
14-Dec-17 13:13 47.527458 -122.300281 149 32ft 24kts
14-Dec-17 13:14 47.528653 -122.298366 342 32ft 14kts
14-Dec-17 13:15 47.531608 -122.300815 329 32ft 16kts
14-Dec-17 13:16 47.534485 -122.302886 33 32ft 7kts
14-Dec-17 13:17 47.534677 -122.302435 59 32ft 0kts

Navigation Log

Ident Type
Flight plan parsing failed, navigation log unavailable